sensor_id;sensor_type;location;lat;lon;timestamp;pressure;altitude;pressure_sealevel;temperature;humidity
62928;BME280;51070;52.236;-0.892;2023-08-12T00:00:57;100621.63;;;17.89;68.88
62928;BME280;51070;52.236;-0.892;2023-08-12T00:03:22;100626.88;;;17.90;69.04
62928;BME280;51070;52.236;-0.892;2023-08-12T00:05:47;100626.70;;;17.90;68.99
62928;BME280;51070;52.236;-0.892;2023-08-12T00:08:12;100626.00;;;17.90;69.16
62928;BME280;51070;52.236;-0.892;2023-08-12T00:10:38;100618.48;;;17.84;70.27
62928;BME280;51070;52.236;-0.892;2023-08-12T00:13:03;100620.39;;;17.76;70.59
62928;BME280;51070;52.236;-0.892;2023-08-12T00:15:28;100619.67;;;17.71;70.52
62928;BME280;51070;52.236;-0.892;2023-08-12T00:17:53;100609.90;;;17.74;70.44
62928;BME280;51070;52.236;-0.892;2023-08-12T00:20:19;100606.41;;;17.75;70.33
62928;BME280;51070;52.236;-0.892;2023-08-12T00:22:44;100605.16;;;17.77;70.27
62928;BME280;51070;52.236;-0.892;2023-08-12T00:25:09;100607.11;;;17.79;70.27
62928;BME280;51070;52.236;-0.892;2023-08-12T00:27:35;100603.96;;;17.79;70.55
62928;BME280;51070;52.236;-0.892;2023-08-12T00:30:02;100602.02;;;17.73;70.79
62928;BME280;51070;52.236;-0.892;2023-08-12T00:32:28;100602.73;;;17.69;71.14
62928;BME280;51070;52.236;-0.892;2023-08-12T00:34:53;100603.60;;;17.65;71.33
62928;BME280;51070;52.236;-0.892;2023-08-12T00:37:18;100604.63;;;17.61;71.52
62928;BME280;51070;52.236;-0.892;2023-08-12T00:39:44;100603.36;;;17.57;71.65
62928;BME280;51070;52.236;-0.892;2023-08-12T00:42:09;100599.52;;;17.51;72.15
62928;BME280;51070;52.236;-0.892;2023-08-12T00:44:34;100600.38;;;17.45;72.51
62928;BME280;51070;52.236;-0.892;2023-08-12T00:46:59;100592.67;;;17.38;72.75
62928;BME280;51070;52.236;-0.892;2023-08-12T00:49:25;100593.73;;;17.35;73.06
62928;BME280;51070;52.236;-0.892;2023-08-12T00:51:51;100590.04;;;17.35;73.23
62928;BME280;51070;52.236;-0.892;2023-08-12T00:54:17;100590.74;;;17.35;73.39
62928;BME280;51070;52.236;-0.892;2023-08-12T00:56:44;100589.35;;;17.36;73.42
62928;BME280;51070;52.236;-0.892;2023-08-12T00:59:10;100586.55;;;17.38;73.57
62928;BME280;51070;52.236;-0.892;2023-08-12T01:01:39;100584.98;;;17.40;73.52
62928;BME280;51070;52.236;-0.892;2023-08-12T01:04:05;100584.81;;;17.39;73.59
62928;BME280;51070;52.236;-0.892;2023-08-12T01:06:31;100578.52;;;17.36;73.79
62928;BME280;51070;52.236;-0.892;2023-08-12T01:08:56;100575.71;;;17.30;74.08
62928;BME280;51070;52.236;-0.892;2023-08-12T01:16:42;100577.20;;;16.99;77.07
62928;BME280;51070;52.236;-0.892;2023-08-12T01:19:10;100578.38;;;16.89;77.33
62928;BME280;51070;52.236;-0.892;2023-08-12T01:21:36;100579.73;;;16.82;78.27
62928;BME280;51070;52.236;-0.892;2023-08-12T01:24:06;100580.58;;;16.74;78.74
62928;BME280;51070;52.236;-0.892;2023-08-12T01:26:31;100581.23;;;16.69;78.78
62928;BME280;51070;52.236;-0.892;2023-08-12T01:28:56;100578.45;;;16.68;78.90
62928;BME280;51070;52.236;-0.892;2023-08-12T01:33:55;100573.73;;;16.70;78.99
62928;BME280;51070;52.236;-0.892;2023-08-12T01:36:23;100566.41;;;16.70;79.56
62928;BME280;51070;52.236;-0.892;2023-08-12T01:38:51;100563.79;;;16.67;80.14
62928;BME280;51070;52.236;-0.892;2023-08-12T01:41:18;100558.36;;;16.62;80.25
62928;BME280;51070;52.236;-0.892;2023-08-12T01:43:45;100551.16;;;16.58;80.60
62928;BME280;51070;52.236;-0.892;2023-08-12T01:46:11;100547.13;;;16.57;80.63
62928;BME280;51070;52.236;-0.892;2023-08-12T01:48:36;100558.46;;;16.56;80.64
62928;BME280;51070;52.236;-0.892;2023-08-12T01:51:02;100566.65;;;16.54;80.96
62928;BME280;51070;52.236;-0.892;2023-08-12T01:53:28;100563.67;;;16.52;81.02
62928;BME280;51070;52.236;-0.892;2023-08-12T01:55:53;100558.42;;;16.49;81.04
62928;BME280;51070;52.236;-0.892;2023-08-12T01:58:18;100553.18;;;16.46;81.45
62928;BME280;51070;52.236;-0.892;2023-08-12T02:00:44;100555.59;;;16.43;81.58
62928;BME280;51070;52.236;-0.892;2023-08-12T02:03:09;100556.12;;;16.41;81.74
62928;BME280;51070;52.236;-0.892;2023-08-12T02:05:34;100555.59;;;16.40;82.04
62928;BME280;51070;52.236;-0.892;2023-08-12T02:08:02;100556.80;;;16.39;82.22
62928;BME280;51070;52.236;-0.892;2023-08-12T02:10:27;100556.13;;;16.40;82.27
62928;BME280;51070;52.236;-0.892;2023-08-12T02:12:53;100555.94;;;16.43;82.21
62928;BME280;51070;52.236;-0.892;2023-08-12T02:15:18;100551.40;;;16.43;82.33
62928;BME280;51070;52.236;-0.892;2023-08-12T02:17:43;100549.84;;;16.42;82.34
62928;BME280;51070;52.236;-0.892;2023-08-12T02:20:09;100550.88;;;16.39;82.57
62928;BME280;51070;52.236;-0.892;2023-08-12T02:22:34;100548.05;;;16.34;83.26
62928;BME280;51070;52.236;-0.892;2023-08-12T02:24:59;100543.48;;;16.28;83.54
62928;BME280;51070;52.236;-0.892;2023-08-12T02:27:25;100537.69;;;16.22;84.04
62928;BME280;51070;52.236;-0.892;2023-08-12T02:29:50;100526.14;;;16.15;84.28
62928;BME280;51070;52.236;-0.892;2023-08-12T02:32:15;100517.91;;;16.09;84.46
62928;BME280;51070;52.236;-0.892;2023-08-12T02:34:40;100525.36;;;16.03;85.05
62928;BME280;51070;52.236;-0.892;2023-08-12T02:37:06;100525.84;;;15.99;84.98
62928;BME280;51070;52.236;-0.892;2023-08-12T02:39:31;100523.90;;;15.94;85.80
62928;BME280;51070;52.236;-0.892;2023-08-12T02:41:56;100518.45;;;15.88;86.52
62928;BME280;51070;52.236;-0.892;2023-08-12T02:44:22;100520.67;;;15.81;87.07
62928;BME280;51070;52.236;-0.892;2023-08-12T02:46:47;100529.16;;;15.75;87.06
62928;BME280;51070;52.236;-0.892;2023-08-12T02:49:12;100525.98;;;15.71;87.55
62928;BME280;51070;52.236;-0.892;2023-08-12T02:51:37;100525.95;;;15.68;88.12
62928;BME280;51070;52.236;-0.892;2023-08-12T02:54:03;100526.98;;;15.66;87.69
62928;BME280;51070;52.236;-0.892;2023-08-12T02:56:28;100527.85;;;15.66;87.65
62928;BME280;51070;52.236;-0.892;2023-08-12T02:58:53;100521.77;;;15.67;87.71
62928;BME280;51070;52.236;-0.892;2023-08-12T03:01:20;100515.49;;;15.65;87.88
62928;BME280;51070;52.236;-0.892;2023-08-12T03:03:46;100515.46;;;15.63;88.20
62928;BME280;51070;52.236;-0.892;2023-08-12T03:06:11;100514.59;;;15.61;88.17
62928;BME280;51070;52.236;-0.892;2023-08-12T03:08:36;100517.67;;;15.57;88.78
62928;BME280;51070;52.236;-0.892;2023-08-12T03:11:02;100520.42;;;15.52;88.99
62928;BME280;51070;52.236;-0.892;2023-08-12T03:13:27;100514.67;;;15.52;88.88
62928;BME280;51070;52.236;-0.892;2023-08-12T03:15:53;100513.41;;;15.50;89.71
62928;BME280;51070;52.236;-0.892;2023-08-12T03:18:18;100514.61;;;15.49;89.47
62928;BME280;51070;52.236;-0.892;2023-08-12T03:20:43;100514.33;;;15.53;89.18
62928;BME280;51070;52.236;-0.892;2023-08-12T03:23:08;100514.01;;;15.56;89.16
62928;BME280;51070;52.236;-0.892;2023-08-12T03:25:34;100510.73;;;15.59;89.35
62928;BME280;51070;52.236;-0.892;2023-08-12T03:27:59;100509.16;;;15.61;89.39
62928;BME280;51070;52.236;-0.892;2023-08-12T03:30:24;100500.80;;;15.57;90.24
62928;BME280;51070;52.236;-0.892;2023-08-12T03:32:51;100496.70;;;15.49;90.69
62928;BME280;51070;52.236;-0.892;2023-08-12T03:35:16;100499.93;;;15.42;90.97
62928;BME280;51070;52.236;-0.892;2023-08-12T03:37:41;100500.40;;;15.38;91.13
62928;BME280;51070;52.236;-0.892;2023-08-12T03:40:07;100497.41;;;15.34;91.56
62928;BME280;51070;52.236;-0.892;2023-08-12T03:42:33;100495.84;;;15.32;92.15
62928;BME280;51070;52.236;-0.892;2023-08-12T03:44:58;100497.20;;;15.30;92.10
62928;BME280;51070;52.236;-0.892;2023-08-12T03:47:23;100498.10;;;15.32;92.25
62928;BME280;51070;52.236;-0.892;2023-08-12T03:49:49;100493.23;;;15.35;92.09
62928;BME280;51070;52.236;-0.892;2023-08-12T03:52:15;100496.59;;;15.37;92.61
62928;BME280;51070;52.236;-0.892;2023-08-12T03:54:40;100496.39;;;15.37;92.49
62928;BME280;51070;52.236;-0.892;2023-08-12T03:57:05;100497.79;;;15.36;92.51
62928;BME280;51070;52.236;-0.892;2023-08-12T03:59:31;100499.55;;;15.37;92.44
62928;BME280;51070;52.236;-0.892;2023-08-12T04:01:56;100505.46;;;15.39;92.25
62928;BME280;51070;52.236;-0.892;2023-08-12T04:04:22;100498.00;;;15.41;92.11
62928;BME280;51070;52.236;-0.892;2023-08-12T04:06:47;100503.77;;;15.44;92.36
62928;BME280;51070;52.236;-0.892;2023-08-12T04:09:16;100504.65;;;15.45;92.57
62928;BME280;51070;52.236;-0.892;2023-08-12T04:11:41;100504.30;;;15.46;92.79
62928;BME280;51070;52.236;-0.892;2023-08-12T04:14:07;100498.55;;;15.43;93.15
62928;BME280;51070;52.236;-0.892;2023-08-12T04:16:32;100497.52;;;15.45;92.91
62928;BME280;51070;52.236;-0.892;2023-08-12T04:18:58;100492.83;;;15.46;93.48
62928;BME280;51070;52.236;-0.892;2023-08-12T04:21:23;100481.31;;;15.45;93.80
62928;BME280;51070;52.236;-0.892;2023-08-12T04:23:48;100476.63;;;15.46;93.35
62928;BME280;51070;52.236;-0.892;2023-08-12T04:26:13;100478.55;;;15.47;93.86
62928;BME280;51070;52.236;-0.892;2023-08-12T04:28:38;100481.33;;;15.46;93.80
62928;BME280;51070;52.236;-0.892;2023-08-12T04:31:06;100479.24;;;15.47;93.50
62928;BME280;51070;52.236;-0.892;2023-08-12T04:33:31;100474.96;;;15.52;93.39
62928;BME280;51070;52.236;-0.892;2023-08-12T04:35:57;100469.59;;;15.56;93.19
62928;BME280;51070;52.236;-0.892;2023-08-12T04:38:23;100464.54;;;15.53;93.28
62928;BME280;51070;52.236;-0.892;2023-08-12T04:40:48;100462.73;;;15.49;93.36
62928;BME280;51070;52.236;-0.892;2023-08-12T04:43:14;100464.63;;;15.47;93.68
62928;BME280;51070;52.236;-0.892;2023-08-12T04:45:39;100458.19;;;15.48;93.32
62928;BME280;51070;52.236;-0.892;2023-08-12T04:48:05;100455.23;;;15.48;93.52
62928;BME280;51070;52.236;-0.892;2023-08-12T04:50:30;100451.39;;;15.48;93.89
62928;BME280;51070;52.236;-0.892;2023-08-12T04:52:56;100450.32;;;15.44;94.43
62928;BME280;51070;52.236;-0.892;2023-08-12T04:55:21;100447.84;;;15.39;94.83
62928;BME280;51070;52.236;-0.892;2023-08-12T04:57:46;100447.45;;;15.34;94.56
62928;BME280;51070;52.236;-0.892;2023-08-12T05:00:12;100451.61;;;15.32;94.98
62928;BME280;51070;52.236;-0.892;2023-08-12T05:02:37;100447.23;;;15.29;95.10
62928;BME280;51070;52.236;-0.892;2023-08-12T05:05:03;100446.86;;;15.27;95.47
62928;BME280;51070;52.236;-0.892;2023-08-12T05:07:28;100449.61;;;15.24;95.03
62928;BME280;51070;52.236;-0.892;2023-08-12T05:09:55;100451.17;;;15.22;95.21
62928;BME280;51070;52.236;-0.892;2023-08-12T05:12:21;100448.53;;;15.19;95.34
62928;BME280;51070;52.236;-0.892;2023-08-12T05:14:46;100447.84;;;15.19;95.28
62928;BME280;51070;52.236;-0.892;2023-08-12T05:17:11;100446.64;;;15.20;95.09
62928;BME280;51070;52.236;-0.892;2023-08-12T05:19:37;100451.72;;;15.25;94.70
62928;BME280;51070;52.236;-0.892;2023-08-12T05:22:02;100455.06;;;15.30;94.50
62928;BME280;51070;52.236;-0.892;2023-08-12T05:24:28;100455.61;;;15.31;94.05
62928;BME280;51070;52.236;-0.892;2023-08-12T05:26:53;100455.44;;;15.33;94.18
62928;BME280;51070;52.236;-0.892;2023-08-12T05:29:18;100455.27;;;15.34;94.35
62928;BME280;51070;52.236;-0.892;2023-08-12T05:31:44;100452.52;;;15.36;94.45
62928;BME280;51070;52.236;-0.892;2023-08-12T05:34:09;100454.10;;;15.38;94.38
62928;BME280;51070;52.236;-0.892;2023-08-12T05:36:35;100455.84;;;15.40;94.34
62928;BME280;51070;52.236;-0.892;2023-08-12T05:39:00;100455.19;;;15.44;94.21
62928;BME280;51070;52.236;-0.892;2023-08-12T05:41:25;100455.40;;;15.48;93.88
62928;BME280;51070;52.236;-0.892;2023-08-12T05:43:51;100453.75;;;15.55;93.86
62928;BME280;51070;52.236;-0.892;2023-08-12T05:46:16;100450.13;;;15.59;93.67
62928;BME280;51070;52.236;-0.892;2023-08-12T05:48:42;100445.59;;;15.60;94.17
62928;BME280;51070;52.236;-0.892;2023-08-12T05:51:07;100445.61;;;15.62;93.99
62928;BME280;51070;52.236;-0.892;2023-08-12T05:53:32;100442.85;;;15.65;94.19
62928;BME280;51070;52.236;-0.892;2023-08-12T05:56:00;100436.75;;;15.67;94.36
62928;BME280;51070;52.236;-0.892;2023-08-12T05:58:25;100438.88;;;15.70;94.11
62928;BME280;51070;52.236;-0.892;2023-08-12T06:00:51;100440.11;;;15.73;94.32
62928;BME280;51070;52.236;-0.892;2023-08-12T06:03:16;100442.24;;;15.78;94.00
62928;BME280;51070;52.236;-0.892;2023-08-12T06:05:43;100446.83;;;15.87;93.53
62928;BME280;51070;52.236;-0.892;2023-08-12T06:08:08;100444.98;;;15.98;93.03
62928;BME280;51070;52.236;-0.892;2023-08-12T06:10:34;100441.89;;;16.07;92.73
62928;BME280;51070;52.236;-0.892;2023-08-12T06:12:59;100441.75;;;16.15;92.13
62928;BME280;51070;52.236;-0.892;2023-08-12T06:15:25;100444.95;;;16.24;91.89
62928;BME280;51070;52.236;-0.892;2023-08-12T06:17:50;100441.16;;;16.36;91.31
62928;BME280;51070;52.236;-0.892;2023-08-12T06:20:15;100438.40;;;16.43;90.77
62928;BME280;51070;52.236;-0.892;2023-08-12T06:22:41;100437.92;;;16.54;90.56
62928;BME280;51070;52.236;-0.892;2023-08-12T06:25:07;100432.92;;;16.67;89.53
62928;BME280;51070;52.236;-0.892;2023-08-12T06:27:32;100436.27;;;16.74;88.81
62928;BME280;51070;52.236;-0.892;2023-08-12T06:29:57;100437.70;;;16.84;88.16
62928;BME280;51070;52.236;-0.892;2023-08-12T06:32:22;100436.47;;;16.90;87.55
62928;BME280;51070;52.236;-0.892;2023-08-12T06:34:48;100442.56;;;16.83;87.69
62928;BME280;51070;52.236;-0.892;2023-08-12T06:37:13;100445.36;;;16.77;88.00
62928;BME280;51070;52.236;-0.892;2023-08-12T06:39:38;100448.14;;;16.79;87.99
62928;BME280;51070;52.236;-0.892;2023-08-12T06:42:04;100448.48;;;16.75;87.86
62928;BME280;51070;52.236;-0.892;2023-08-12T06:44:29;100451.10;;;16.73;87.84
62928;BME280;51070;52.236;-0.892;2023-08-12T06:46:54;100450.41;;;16.78;87.87
62928;BME280;51070;52.236;-0.892;2023-08-12T06:49:20;100453.22;;;16.85;87.24
62928;BME280;51070;52.236;-0.892;2023-08-12T06:51:45;100453.55;;;16.78;87.38
62928;BME280;51070;52.236;-0.892;2023-08-12T06:54:10;100453.73;;;16.77;87.36
62928;BME280;51070;52.236;-0.892;2023-08-12T06:56:36;100447.63;;;16.82;87.18
62928;BME280;51070;52.236;-0.892;2023-08-12T06:59:01;100449.39;;;16.90;86.99
62928;BME280;51070;52.236;-0.892;2023-08-12T07:01:26;100447.31;;;16.98;86.55
62928;BME280;51070;52.236;-0.892;2023-08-12T07:03:51;100440.70;;;17.04;86.16
62928;BME280;51070;52.236;-0.892;2023-08-12T07:06:17;100438.77;;;17.10;85.86
62928;BME280;51070;52.236;-0.892;2023-08-12T07:08:43;100437.23;;;17.30;85.19
62928;BME280;51070;52.236;-0.892;2023-08-12T07:11:08;100435.64;;;17.45;84.05
62928;BME280;51070;52.236;-0.892;2023-08-12T07:13:33;100432.15;;;17.53;83.35
62928;BME280;51070;52.236;-0.892;2023-08-12T07:15:58;100430.58;;;17.52;83.13
62928;BME280;51070;52.236;-0.892;2023-08-12T07:18:23;100437.04;;;17.83;82.31
62928;BME280;51070;52.236;-0.892;2023-08-12T07:20:49;100433.34;;;18.01;80.90
62928;BME280;51070;52.236;-0.892;2023-08-12T07:23:14;100438.88;;;18.14;80.01
62928;BME280;51070;52.236;-0.892;2023-08-12T07:25:40;100437.48;;;18.17;80.09
62928;BME280;51070;52.236;-0.892;2023-08-12T07:28:05;100437.96;;;18.26;79.75
62928;BME280;51070;52.236;-0.892;2023-08-12T07:30:30;100434.42;;;18.37;79.20
62928;BME280;51070;52.236;-0.892;2023-08-12T07:32:55;100432.83;;;18.44;78.70
62928;BME280;51070;52.236;-0.892;2023-08-12T07:35:21;100427.84;;;18.68;77.48
62928;BME280;51070;52.236;-0.892;2023-08-12T07:37:46;100426.34;;;18.85;76.68
62928;BME280;51070;52.236;-0.892;2023-08-12T07:40:11;100424.22;;;19.13;74.57
62928;BME280;51070;52.236;-0.892;2023-08-12T07:42:37;100421.27;;;19.32;73.52
62928;BME280;51070;52.236;-0.892;2023-08-12T07:45:03;100418.05;;;19.62;72.39
62928;BME280;51070;52.236;-0.892;2023-08-12T07:47:28;100418.08;;;19.78;72.05
62928;BME280;51070;52.236;-0.892;2023-08-12T07:49:54;100414.09;;;19.90;70.79
62928;BME280;51070;52.236;-0.892;2023-08-12T07:52:19;100415.49;;;19.89;70.71
62928;BME280;51070;52.236;-0.892;2023-08-12T07:54:45;100410.28;;;19.68;70.61
62928;BME280;51070;52.236;-0.892;2023-08-12T07:57:10;100411.88;;;19.45;71.37
62928;BME280;51070;52.236;-0.892;2023-08-12T07:59:36;100409.05;;;19.25;72.20
62928;BME280;51070;52.236;-0.892;2023-08-12T08:02:01;100404.05;;;19.16;72.88
62928;BME280;51070;52.236;-0.892;2023-08-12T08:04:26;100399.06;;;19.05;73.15
62928;BME280;51070;52.236;-0.892;2023-08-12T08:06:52;100400.87;;;18.96;73.63
62928;BME280;51070;52.236;-0.892;2023-08-12T08:09:17;100397.17;;;19.00;73.59
62928;BME280;51070;52.236;-0.892;2023-08-12T08:11:42;100396.20;;;19.12;73.60
62928;BME280;51070;52.236;-0.892;2023-08-12T08:14:07;100401.92;;;19.19;72.99
62928;BME280;51070;52.236;-0.892;2023-08-12T08:16:33;100400.86;;;19.20;73.14
62928;BME280;51070;52.236;-0.892;2023-08-12T08:18:58;100399.88;;;19.35;72.67
62928;BME280;51070;52.236;-0.892;2023-08-12T08:21:23;100400.66;;;19.45;71.74
62928;BME280;51070;52.236;-0.892;2023-08-12T08:23:49;100401.19;;;19.48;71.20
62928;BME280;51070;52.236;-0.892;2023-08-12T08:26:14;100396.27;;;19.50;71.43
62928;BME280;51070;52.236;-0.892;2023-08-12T08:28:41;100396.01;;;19.58;71.33
62928;BME280;51070;52.236;-0.892;2023-08-12T08:31:06;100392.05;;;19.68;71.03
62928;BME280;51070;52.236;-0.892;2023-08-12T08:33:31;100397.55;;;19.80;70.28
62928;BME280;51070;52.236;-0.892;2023-08-12T08:35:56;100396.68;;;19.78;69.70
62928;BME280;51070;52.236;-0.892;2023-08-12T08:38:22;100394.84;;;19.70;69.63
62928;BME280;51070;52.236;-0.892;2023-08-12T08:40:48;100391.36;;;19.66;69.74
62928;BME280;51070;52.236;-0.892;2023-08-12T08:43:14;100396.09;;;19.68;69.69
62928;BME280;51070;52.236;-0.892;2023-08-12T08:45:40;100390.07;;;19.73;69.24
62928;BME280;51070;52.236;-0.892;2023-08-12T08:48:07;100388.80;;;19.92;69.15
62928;BME280;51070;52.236;-0.892;2023-08-12T08:50:33;100394.09;;;20.19;67.76
62928;BME280;51070;52.236;-0.892;2023-08-12T08:52:59;100394.17;;;20.27;66.78
62928;BME280;51070;52.236;-0.892;2023-08-12T08:55:24;100395.95;;;20.26;66.60
62928;BME280;51070;52.236;-0.892;2023-08-12T08:57:50;100399.91;;;20.33;66.39
62928;BME280;51070;52.236;-0.892;2023-08-12T09:00:16;100397.80;;;20.47;66.57
62928;BME280;51070;52.236;-0.892;2023-08-12T09:02:42;100401.44;;;20.64;66.09
62928;BME280;51070;52.236;-0.892;2023-08-12T09:05:08;100402.75;;;20.83;65.80
62928;BME280;51070;52.236;-0.892;2023-08-12T09:07:34;100398.46;;;21.00;65.09
62928;BME280;51070;52.236;-0.892;2023-08-12T09:09:59;100406.93;;;20.96;64.28
62928;BME280;51070;52.236;-0.892;2023-08-12T09:12:25;100401.67;;;20.96;64.38
62928;BME280;51070;52.236;-0.892;2023-08-12T09:14:51;100398.66;;;20.98;63.85
62928;BME280;51070;52.236;-0.892;2023-08-12T09:17:16;100394.48;;;21.19;63.60
62928;BME280;51070;52.236;-0.892;2023-08-12T09:19:42;100395.38;;;21.39;62.44
62928;BME280;51070;52.236;-0.892;2023-08-12T09:22:07;100399.32;;;21.34;62.02
62928;BME280;51070;52.236;-0.892;2023-08-12T09:24:36;100403.33;;;21.15;62.10
62928;BME280;51070;52.236;-0.892;2023-08-12T09:27:01;100409.52;;;20.87;62.62
62928;BME280;51070;52.236;-0.892;2023-08-12T09:29:30;100412.17;;;20.63;63.57
62928;BME280;51070;52.236;-0.892;2023-08-12T09:32:12;100407.36;;;20.67;63.79
62928;BME280;51070;52.236;-0.892;2023-08-12T09:34:38;100407.95;;;20.88;63.25
62928;BME280;51070;52.236;-0.892;2023-08-12T09:37:03;100400.86;;;21.03;62.97
62928;BME280;51070;52.236;-0.892;2023-08-12T09:39:29;100402.38;;;21.40;61.78
62928;BME280;51070;52.236;-0.892;2023-08-12T09:41:58;100404.33;;;21.78;60.72
62928;BME280;51070;52.236;-0.892;2023-08-12T09:44:24;100398.49;;;22.26;59.91
62928;BME280;51070;52.236;-0.892;2023-08-12T09:46:56;100395.59;;;23.23;56.14
62928;BME280;51070;52.236;-0.892;2023-08-12T09:49:21;100398.92;;;23.53;54.88
62928;BME280;51070;52.236;-0.892;2023-08-12T09:51:46;100394.39;;;23.37;55.22
62928;BME280;51070;52.236;-0.892;2023-08-12T09:54:11;100392.71;;;22.82;56.57
62928;BME280;51070;52.236;-0.892;2023-08-12T09:56:37;100399.23;;;22.41;58.32
62928;BME280;51070;52.236;-0.892;2023-08-12T09:59:07;100401.15;;;22.17;59.24
62928;BME280;51070;52.236;-0.892;2023-08-12T10:01:33;100388.67;;;22.65;59.05
62928;BME280;51070;52.236;-0.892;2023-08-12T10:03:58;100387.31;;;23.72;56.28
62928;BME280;51070;52.236;-0.892;2023-08-12T10:06:23;100381.11;;;25.09;52.08
62928;BME280;51070;52.236;-0.892;2023-08-12T10:08:49;100378.24;;;26.03;50.34
62928;BME280;51070;52.236;-0.892;2023-08-12T10:11:15;100373.10;;;26.55;48.12
62928;BME280;51070;52.236;-0.892;2023-08-12T10:13:41;100378.89;;;26.23;48.06
62928;BME280;51070;52.236;-0.892;2023-08-12T10:16:07;100379.73;;;25.57;49.17
62928;BME280;51070;52.236;-0.892;2023-08-12T10:18:33;100375.56;;;25.17;49.17
62928;BME280;51070;52.236;-0.892;2023-08-12T10:20:58;100374.77;;;25.09;49.38
62928;BME280;51070;52.236;-0.892;2023-08-12T10:23:24;100377.77;;;24.76;50.06
62928;BME280;51070;52.236;-0.892;2023-08-12T10:25:50;100374.41;;;24.53;50.39
62928;BME280;51070;52.236;-0.892;2023-08-12T10:28:18;100372.20;;;24.08;50.68
62928;BME280;51070;52.236;-0.892;2023-08-12T10:30:44;100365.45;;;23.85;51.30
62928;BME280;51070;52.236;-0.892;2023-08-12T10:33:10;100360.19;;;23.57;51.58
62928;BME280;51070;52.236;-0.892;2023-08-12T10:35:42;100358.91;;;23.97;51.60
62928;BME280;51070;52.236;-0.892;2023-08-12T10:38:08;100348.86;;;24.27;50.65
62928;BME280;51070;52.236;-0.892;2023-08-12T10:40:33;100343.14;;;24.30;49.81
62928;BME280;51070;52.236;-0.892;2023-08-12T10:42:59;100341.04;;;24.24;50.21
62928;BME280;51070;52.236;-0.892;2023-08-12T10:45:24;100331.98;;;24.20;50.38
62928;BME280;51070;52.236;-0.892;2023-08-12T10:50:34;100327.46;;;23.92;51.19
62928;BME280;51070;52.236;-0.892;2023-08-12T10:52:59;100320.56;;;23.93;51.28
62928;BME280;51070;52.236;-0.892;2023-08-12T10:55:47;100326.95;;;24.51;49.98
62928;BME280;51070;52.236;-0.892;2023-08-12T10:58:13;100325.98;;;24.98;49.58
62928;BME280;51070;52.236;-0.892;2023-08-12T11:00:51;100324.52;;;24.89;48.63
62928;BME280;51070;52.236;-0.892;2023-08-12T11:03:17;100314.80;;;24.72;48.51
62928;BME280;51070;52.236;-0.892;2023-08-12T11:05:44;100318.23;;;24.70;48.62
62928;BME280;51070;52.236;-0.892;2023-08-12T11:08:11;100317.51;;;24.87;47.95
62928;BME280;51070;52.236;-0.892;2023-08-12T11:10:37;100323.88;;;25.03;47.58
62928;BME280;51070;52.236;-0.892;2023-08-12T11:13:03;100323.92;;;25.38;47.03
62928;BME280;51070;52.236;-0.892;2023-08-12T11:15:30;100318.48;;;25.58;45.85
62928;BME280;51070;52.236;-0.892;2023-08-12T11:17:57;100308.11;;;25.40;46.08
62928;BME280;51070;52.236;-0.892;2023-08-12T11:20:22;100313.40;;;25.35;46.39
62928;BME280;51070;52.236;-0.892;2023-08-12T11:22:47;100305.71;;;25.38;46.13
62928;BME280;51070;52.236;-0.892;2023-08-12T11:25:14;100306.40;;;25.33;46.65
62928;BME280;51070;52.236;-0.892;2023-08-12T11:27:40;100307.39;;;25.50;46.91
62928;BME280;51070;52.236;-0.892;2023-08-12T11:30:06;100306.48;;;25.40;46.63
62928;BME280;51070;52.236;-0.892;2023-08-12T11:32:31;100304.41;;;25.55;46.54
62928;BME280;51070;52.236;-0.892;2023-08-12T11:34:57;100306.52;;;25.70;46.09
62928;BME280;51070;52.236;-0.892;2023-08-12T11:37:22;100312.71;;;25.70;46.09
62928;BME280;51070;52.236;-0.892;2023-08-12T11:39:48;100304.30;;;25.58;46.32
62928;BME280;51070;52.236;-0.892;2023-08-12T11:42:13;100294.03;;;25.38;47.26
62928;BME280;51070;52.236;-0.892;2023-08-12T11:44:39;100303.36;;;25.13;48.62
62928;BME280;51070;52.236;-0.892;2023-08-12T11:47:05;100301.25;;;25.14;49.71
62928;BME280;51070;52.236;-0.892;2023-08-12T11:49:30;100300.16;;;25.15;50.55
62928;BME280;51070;52.236;-0.892;2023-08-12T11:51:55;100308.80;;;25.10;50.58
62928;BME280;51070;52.236;-0.892;2023-08-12T11:54:21;100302.20;;;25.06;50.40
62928;BME280;51070;52.236;-0.892;2023-08-12T11:56:46;100301.41;;;25.04;50.34
62928;BME280;51070;52.236;-0.892;2023-08-12T11:59:12;100298.31;;;25.01;50.73
62928;BME280;51070;52.236;-0.892;2023-08-12T12:01:37;100297.30;;;24.90;50.86
62928;BME280;51070;52.236;-0.892;2023-08-12T12:04:02;100293.41;;;25.00;50.67
62928;BME280;51070;52.236;-0.892;2023-08-12T12:06:31;100297.65;;;25.00;51.02
62928;BME280;51070;52.236;-0.892;2023-08-12T12:09:01;100297.39;;;24.97;50.90
62928;BME280;51070;52.236;-0.892;2023-08-12T12:11:29;100293.92;;;25.11;49.96
62928;BME280;51070;52.236;-0.892;2023-08-12T12:13:55;100297.50;;;25.30;48.77
62928;BME280;51070;52.236;-0.892;2023-08-12T12:16:20;100301.10;;;25.08;48.84
62928;BME280;51070;52.236;-0.892;2023-08-12T12:18:45;100306.66;;;24.94;49.19
62928;BME280;51070;52.236;-0.892;2023-08-12T12:21:11;100292.52;;;24.78;49.46
62928;BME280;51070;52.236;-0.892;2023-08-12T12:23:36;100294.70;;;24.49;50.34
62928;BME280;51070;52.236;-0.892;2023-08-12T12:26:03;100299.00;;;24.18;51.26
62928;BME280;51070;52.236;-0.892;2023-08-12T12:28:28;100297.89;;;24.02;51.57
62928;BME280;51070;52.236;-0.892;2023-08-12T12:30:54;100302.91;;;24.05;51.75
62928;BME280;51070;52.236;-0.892;2023-08-12T12:33:19;100297.05;;;24.30;51.40
62928;BME280;51070;52.236;-0.892;2023-08-12T12:35:45;100295.31;;;24.63;50.45
62928;BME280;51070;52.236;-0.892;2023-08-12T12:38:10;100295.35;;;24.84;50.09
62928;BME280;51070;52.236;-0.892;2023-08-12T12:40:36;100294.77;;;24.91;48.29
62928;BME280;51070;52.236;-0.892;2023-08-12T12:43:03;100289.79;;;24.97;48.00